Coraopolis, PA

3:29 PM EDT on August 27, 2016 (GMT -0400)
Moon Township | | Change Station

Elev 1073 ft 40.52 °N, 80.20 °W | Updated 51 seconds ago

Overcast
Overcast
93.0 °F
Feels Like 100 °F
N
2.0
Wind Variable Wind from West

Today
High -- | Low -- °F
--% Chance of Precip.
Yesterday
High -- | Low -- °F
Precip. -- in
Pressure 30.14 in
Visibility 10.0 miles
Clouds Few 5000 ft
Overcast 25000 ft
Heat Index 100 °F
Dew Point 71 °F
Humidity 49%
Rainfall 0.00 in
Snow Depth Not available.
6:43 AM 7:59 PM
Waning Crescent, 22% visible
METAR KPIT 271851Z VRB05KT 10SM FEW050 OVC250 31/17 A3015 RMK AO2 SLP207 T03060167
Pressure 30.14 in
Visibility 10.0 miles
Clouds Few 5000 ft
Overcast 25000 ft
Heat Index 100 °F
Dew Point 71 °F
Humidity 49%
Rainfall 0.00 in
Snow Depth Not available.
6:43 AM 7:59 PM
Waning Crescent, 22% visible
METAR KPIT 271851Z VRB05KT 10SM FEW050 OVC250 31/17 A3015 RMK AO2 SLP207 T03060167

10-Day Weather Forecast

Almanac

Astronomy

Aug. 27, 2016 Rise Set
Actual Time
Civil Twilight
Nautical Twilight
Astronomical Twilight
Moon
Length of Visible Light
Length of Day
Tomorrow will be .
, % of the Moon is Illuminated

Today's Extremes

State Highs State Lows

Community

WunderPhotos

Upload Photos

1,935,415 photos uploaded!

WunderBlog® & News

Nearby

Air Quality

  Air Quality AQ Index Pollutant
Not available.

Snow Depth

Station Depth Elevation

Earthquake Activity

City Distance Mag. Time & Date
Minimum magnitude displayed is 2.5.

Coastal Water Temperatures

Place Temperature

Stations

Nearby Weather Stations

Station Location Temp. Windchill Dew Point Humidity Wind Precip. Elev Updated Type
                   

Watches & Warnings

There are currently no watches in effect.